Time;durP1;ratioP1;P1;durP2;ratioP2;P2;SDS_P1;SDS_P2;PMS_P1;PMS_P2;Temp;Humidity;BMP_temperature;BMP_pressure;BME280_temperature;BME280_humidity;BME280_pressure;Samples;Min_cycle;Max_cycle;Signal;HPM_P1;HPM_P2
2022/11/09 00:00:53;;;;;;;3.20;1.00;;;;;;;;;;4998525;28;20456;-72
2022/11/09 00:03:24;;;;;;;8.47;1.70;;;;;;;;;;4999025;28;20448;-72
2022/11/09 00:05:56;;;;;;;2.17;1.30;;;;;;;;;;4999462;28;20476;-72
2022/11/09 00:08:23;;;;;;;3.33;1.33;;;;;;;;;;4991721;28;20461;-72
2022/11/09 00:10:54;;;;;;;3.53;1.37;;;;;;;;;;4979493;28;20453;-72
2022/11/09 00:13:23;;;;;;;2.50;1.07;;;;;;;;;;4991120;28;20465;-71
2022/11/09 00:15:51;;;;;;;9.73;1.70;;;;;;;;;;4996135;28;20453;-72
2022/11/09 00:18:19;;;;;;;4.50;1.73;;;;;;;;;;4986613;28;20735;-71
2022/11/09 00:20:46;;;;;;;3.40;1.10;;;;;;;;;;4998397;28;20460;-71
2022/11/09 00:23:14;;;;;;;3.30;1.40;;;;;;;;;;4997538;28;20522;-72
2022/11/09 00:25:50;;;;;;;3.70;1.27;;;;;;;;;;4987885;28;20540;-72
2022/11/09 00:28:17;;;;;;;3.13;1.10;;;;;;;;;;4994583;28;20471;-72
2022/11/09 00:30:46;;;;;;;2.80;1.20;;;;;;;;;;4999664;28;20464;-72
2022/11/09 00:33:14;;;;;;;4.53;1.50;;;;;;;;;;4998878;28;20468;-72
2022/11/09 00:35:42;;;;;;;5.63;1.40;;;;;;;;;;4989220;28;20465;-71
2022/11/09 00:38:09;;;;;;;5.23;1.80;;;;;;;;;;4988913;28;21371;-72
2022/11/09 00:40:40;;;;;;;1.83;1.03;;;;;;;;;;4980239;28;20524;-71
2022/11/09 00:43:08;;;;;;;3.97;1.30;;;;;;;;;;4998904;28;20808;-71
2022/11/09 00:45:36;;;;;;;2.00;0.93;;;;;;;;;;4998677;28;20471;-72
2022/11/09 00:48:05;;;;;;;2.50;1.40;;;;;;;;;;4993304;28;20465;-71
2022/11/09 00:50:36;;;;;;;2.17;1.00;;;;;;;;;;4979158;28;20479;-72
2022/11/09 00:53:03;;;;;;;2.17;1.20;;;;;;;;;;4982903;28;20495;-72
2022/11/09 00:55:31;;;;;;;5.30;1.30;;;;;;;;;;4978931;28;20468;-72
2022/11/09 00:57:58;;;;;;;1.90;1.10;;;;;;;;;;4981735;28;20522;-72
2022/11/09 01:00:26;;;;;;;3.00;1.23;;;;;;;;;;4997789;28;20464;-71
2022/11/09 01:02:54;;;;;;;2.37;1.10;;;;;;;;;;4997450;28;20465;-72
2022/11/09 01:05:23;;;;;;;3.30;1.27;;;;;;;;;;4997795;28;20463;-72
2022/11/09 01:07:53;;;;;;;2.60;1.40;;;;;;;;;;4995811;28;20464;-72
2022/11/09 01:10:21;;;;;;;4.07;1.37;;;;;;;;;;4978939;28;20865;-72
2022/11/09 01:12:48;;;;;;;2.13;1.10;;;;;;;;;;4978427;28;20491;-72
2022/11/09 01:15:16;;;;;;;2.27;1.00;;;;;;;;;;4978629;28;20906;-72
2022/11/09 01:17:44;;;;;;;2.80;1.23;;;;;;;;;;4985039;28;20891;-72
2022/11/09 01:20:12;;;;;;;3.10;1.27;;;;;;;;;;4985728;28;20489;-72
2022/11/09 01:22:42;;;;;;;4.47;2.17;;;;;;;;;;4993096;28;20460;-72
2022/11/09 01:25:14;;;;;;;3.60;1.60;;;;;;;;;;4998039;28;20460;-72
2022/11/09 01:27:41;;;;;;;3.23;1.40;;;;;;;;;;4982267;28;20916;-71
2022/11/09 01:30:09;;;;;;;2.50;0.90;;;;;;;;;;4980992;28;20577;-72
2022/11/09 01:32:37;;;;;;;4.93;1.43;;;;;;;;;;4997522;28;20487;-71
2022/11/09 01:35:05;;;;;;;3.37;1.33;;;;;;;;;;4996281;28;21033;-70
2022/11/09 01:37:35;;;;;;;4.33;1.63;;;;;;;;;;4996162;28;20518;-71
2022/11/09 01:40:05;;;;;;;4.10;1.70;;;;;;;;;;4978566;28;20468;-71
2022/11/09 01:42:36;;;;;;;2.70;1.33;;;;;;;;;;4979021;28;20742;-71
2022/11/09 01:45:23;;;;;;;6.80;3.00;;;;;;;;;;4978494;28;20477;-71
2022/11/09 01:47:53;;;;;;;2.53;1.30;;;;;;;;;;4978020;28;20449;-71
2022/11/09 01:50:27;;;;;;;3.10;1.50;;;;;;;;;;4981890;28;20460;-70
2022/11/09 01:52:55;;;;;;;3.90;1.37;;;;;;;;;;4988571;28;20574;-71
2022/11/09 01:55:31;;;;;;;2.70;1.27;;;;;;;;;;4981720;28;20476;-71
2022/11/09 01:58:01;;;;;;;3.13;1.70;;;;;;;;;;4977974;28;20512;-71
2022/11/09 02:00:29;;;;;;;3.20;1.30;;;;;;;;;;4984621;28;20534;-71
2022/11/09 02:03:02;;;;;;;5.93;1.60;;;;;;;;;;4997166;28;20448;-71
2022/11/09 02:05:31;;;;;;;2.13;1.00;;;;;;;;;;4997333;28;20570;-71
2022/11/09 02:08:01;;;;;;;4.07;1.23;;;;;;;;;;4997273;28;20876;-71
2022/11/09 02:10:35;;;;;;;2.10;1.10;;;;;;;;;;4981901;28;20501;-71
2022/11/09 02:13:03;;;;;;;3.57;1.50;;;;;;;;;;4978721;28;20485;-71
2022/11/09 02:15:37;;;;;;;3.33;1.23;;;;;;;;;;4978810;28;20576;-71
2022/11/09 02:18:05;;;;;;;4.67;1.53;;;;;;;;;;4996824;28;20507;-70
2022/11/09 02:20:44;;;;;;;4.10;2.40;;;;;;;;;;4982356;28;20461;-70
2022/11/09 02:23:12;;;;;;;2.40;1.30;;;;;;;;;;4980989;28;20467;-70
2022/11/09 02:25:39;;;;;;;4.30;1.40;;;;;;;;;;4993623;28;20463;-71
2022/11/09 02:28:08;;;;;;;3.23;1.40;;;;;;;;;;4978090;28;20457;-72
2022/11/09 02:30:36;;;;;;;3.90;1.20;;;;;;;;;;4977942;28;20514;-71
2022/11/09 02:33:04;;;;;;;3.93;2.60;;;;;;;;;;4985056;28;20934;-71
2022/11/09 02:35:31;;;;;;;3.23;1.60;;;;;;;;;;4985520;28;21221;-71
2022/11/09 02:38:00;;;;;;;3.30;1.30;;;;;;;;;;4992156;28;20474;-72
2022/11/09 02:40:31;;;;;;;3.17;1.37;;;;;;;;;;4996856;28;20644;-71
2022/11/09 02:42:59;;;;;;;2.93;1.17;;;;;;;;;;4989688;28;20449;-71
2022/11/09 02:45:27;;;;;;;2.63;1.07;;;;;;;;;;4979818;28;20457;-71
2022/11/09 02:47:55;;;;;;;7.70;1.60;;;;;;;;;;4981648;28;20454;-71
2022/11/09 02:50:23;;;;;;;3.63;1.87;;;;;;;;;;4986272;28;20461;-71
2022/11/09 02:52:51;;;;;;;3.23;1.37;;;;;;;;;;4981489;28;20477;-72
2022/11/09 02:55:23;;;;;;;2.40;1.23;;;;;;;;;;4981862;28;20457;-71
2022/11/09 02:57:50;;;;;;;3.37;1.67;;;;;;;;;;4982439;28;20475;-71
2022/11/09 03:00:18;;;;;;;6.23;1.87;;;;;;;;;;4982638;28;20453;-72
2022/11/09 03:02:46;;;;;;;3.33;1.30;;;;;;;;;;4991869;28;20544;-71
2022/11/09 03:05:13;;;;;;;5.00;1.00;;;;;;;;;;4992469;28;20460;-72
2022/11/09 03:07:51;;;;;;;4.93;1.60;;;;;;;;;;5001097;28;20538;-72
2022/11/09 03:10:19;;;;;;;3.03;1.27;;;;;;;;;;4991690;28;20449;-71
2022/11/09 03:12:48;;;;;;;1.97;0.93;;;;;;;;;;4982015;28;20485;-71
2022/11/09 03:15:16;;;;;;;4.23;1.20;;;;;;;;;;4998407;28;20522;-71
2022/11/09 03:17:44;;;;;;;3.63;1.50;;;;;;;;;;5000358;28;20452;-71
2022/11/09 03:20:12;;;;;;;2.37;1.00;;;;;;;;;;4988138;28;20453;-72
2022/11/09 03:22:42;;;;;;;2.83;1.00;;;;;;;;;;4982679;28;20743;-71
2022/11/09 03:25:10;;;;;;;3.60;1.40;;;;;;;;;;4995941;28;20452;-71
2022/11/09 03:27:38;;;;;;;2.57;1.40;;;;;;;;;;4999923;28;20518;-71
2022/11/09 03:30:07;;;;;;;3.03;1.23;;;;;;;;;;5001149;28;20474;-71
2022/11/09 03:32:35;;;;;;;2.70;1.07;;;;;;;;;;4993781;28;20492;-72
2022/11/09 03:35:02;;;;;;;2.27;1.20;;;;;;;;;;4986686;28;20460;-72
2022/11/09 03:37:30;;;;;;;2.37;1.20;;;;;;;;;;4982105;28;20467;-71
2022/11/09 03:39:58;;;;;;;3.50;1.90;;;;;;;;;;4985116;28;20475;-72
2022/11/09 03:42:25;;;;;;;2.43;1.50;;;;;;;;;;4989873;28;21259;-71
2022/11/09 03:44:53;;;;;;;2.90;1.43;;;;;;;;;;4981719;28;20453;-71
2022/11/09 03:47:22;;;;;;;2.90;1.20;;;;;;;;;;4998765;28;20468;-72
2022/11/09 03:49:50;;;;;;;2.70;1.33;;;;;;;;;;5000277;28;20466;-72
2022/11/09 03:52:19;;;;;;;7.57;1.40;;;;;;;;;;4999589;28;20484;-72
2022/11/09 03:54:46;;;;;;;2.33;0.93;;;;;;;;;;4999714;28;20538;-71
2022/11/09 03:57:14;;;;;;;3.57;1.57;;;;;;;;;;4998722;28;20677;-72
2022/11/09 03:59:42;;;;;;;2.10;1.10;;;;;;;;;;4979946;28;20442;-72
2022/11/09 04:02:10;;;;;;;2.70;1.47;;;;;;;;;;4980375;28;20532;-72
2022/11/09 04:04:39;;;;;;;2.90;1.60;;;;;;;;;;4979750;28;20601;-71
2022/11/09 04:07:08;;;;;;;6.03;1.43;;;;;;;;;;4980036;28;20460;-72
2022/11/09 04:09:36;;;;;;;3.50;1.20;;;;;;;;;;4979427;28;20457;-72
2022/11/09 04:12:04;;;;;;;2.10;1.00;;;;;;;;;;4980416;28;20463;-72
2022/11/09 04:14:32;;;;;;;2.30;1.23;;;;;;;;;;4991332;28;20804;-71
2022/11/09 04:16:59;;;;;;;2.20;1.20;;;;;;;;;;5000044;28;20464;-71
2022/11/09 04:19:27;;;;;;;2.43;1.20;;;;;;;;;;4997673;28;20448;-71
2022/11/09 04:21:57;;;;;;;2.23;1.20;;;;;;;;;;4989704;28;20786;-72
2022/11/09 04:24:24;;;;;;;2.50;1.07;;;;;;;;;;4998400;28;20456;-72
2022/11/09 04:26:52;;;;;;;3.23;1.70;;;;;;;;;;4994104;28;20844;-72
2022/11/09 04:29:20;;;;;;;3.30;1.13;;;;;;;;;;4980064;28;20453;-71
2022/11/09 04:31:49;;;;;;;1.93;1.03;;;;;;;;;;4979706;28;20532;-72
2022/11/09 04:34:16;;;;;;;3.67;1.27;;;;;;;;;;4979436;28;20524;-71
2022/11/09 04:36:44;;;;;;;3.23;1.30;;;;;;;;;;4979220;28;20473;-72
2022/11/09 04:39:14;;;;;;;2.47;1.23;;;;;;;;;;4978614;28;20449;-71
2022/11/09 04:41:42;;;;;;;3.20;1.40;;;;;;;;;;4979779;28;20516;-71
2022/11/09 04:44:09;;;;;;;2.43;1.10;;;;;;;;;;4987400;28;20440;-71
2022/11/09 04:46:37;;;;;;;2.60;1.17;;;;;;;;;;4981278;28;20892;-71
2022/11/09 04:49:05;;;;;;;2.50;1.47;;;;;;;;;;4982388;28;20547;-71
2022/11/09 04:51:32;;;;;;;2.33;1.20;;;;;;;;;;4996364;28;20466;-71
2022/11/09 04:54:00;;;;;;;2.87;1.40;;;;;;;;;;4997515;28;20476;-71
2022/11/09 04:56:29;;;;;;;2.47;0.90;;;;;;;;;;4998074;28;20632;-71
2022/11/09 04:58:57;;;;;;;2.43;1.20;;;;;;;;;;4996870;28;20452;-71
2022/11/09 05:01:25;;;;;;;5.60;1.50;;;;;;;;;;4992508;28;20623;-71
2022/11/09 05:03:52;;;;;;;3.03;1.10;;;;;;;;;;4978938;28;20453;-71
2022/11/09 05:09:03;;;;;;;2.40;1.10;;;;;;;;;;4974883;28;20429;-71
2022/11/09 05:11:32;;;;;;;2.70;1.30;;;;;;;;;;4977646;28;20852;-71
2022/11/09 05:14:00;;;;;;;2.73;1.27;;;;;;;;;;4977721;28;20489;-71
2022/11/09 05:16:28;;;;;;;3.33;1.43;;;;;;;;;;4978143;28;20468;-71
2022/11/09 05:18:56;;;;;;;2.00;1.13;;;;;;;;;;4978243;28;20464;-72
2022/11/09 05:21:24;;;;;;;3.03;1.10;;;;;;;;;;4977753;28;20461;-71
2022/11/09 05:24:00;;;;;;;2.67;1.10;;;;;;;;;;4978576;28;20509;-71
2022/11/09 05:26:28;;;;;;;5.50;1.20;;;;;;;;;;4987365;28;20459;-71
2022/11/09 05:28:57;;;;;;;1.80;0.80;;;;;;;;;;4997071;28;20526;-70
2022/11/09 05:31:25;;;;;;;2.73;1.37;;;;;;;;;;4998531;28;20542;-71
2022/11/09 05:33:53;;;;;;;1.50;0.80;;;;;;;;;;4980883;28;20491;-71
2022/11/09 05:36:24;;;;;;;5.87;1.40;;;;;;;;;;4982007;28;20876;-71
2022/11/09 05:38:51;;;;;;;4.40;1.43;;;;;;;;;;4996792;28;20491;-71
2022/11/09 05:41:19;;;;;;;2.90;1.63;;;;;;;;;;4988764;28;20471;-70
2022/11/09 05:43:47;;;;;;;4.07;1.40;;;;;;;;;;4989363;28;20734;-71
2022/11/09 05:46:16;;;;;;;3.40;1.70;;;;;;;;;;4996729;28;20464;-71
2022/11/09 05:48:45;;;;;;;2.70;1.13;;;;;;;;;;4982195;28;20477;-70
2022/11/09 05:51:16;;;;;;;1.63;0.90;;;;;;;;;;4977146;28;20464;-69
2022/11/09 05:53:44;;;;;;;5.67;1.27;;;;;;;;;;4978558;28;20480;-70
2022/11/09 05:56:12;;;;;;;5.10;1.47;;;;;;;;;;4995395;28;20495;-69
2022/11/09 05:58:40;;;;;;;3.13;1.50;;;;;;;;;;4996595;28;20471;-71
2022/11/09 06:01:09;;;;;;;3.77;1.40;;;;;;;;;;4982031;28;20543;-71
2022/11/09 06:03:39;;;;;;;1.80;0.90;;;;;;;;;;4992332;28;20457;-72
2022/11/09 06:06:07;;;;;;;5.17;1.10;;;;;;;;;;4976896;28;20449;-71
2022/11/09 06:08:35;;;;;;;3.30;1.40;;;;;;;;;;4976338;28;20495;-71
2022/11/09 06:11:05;;;;;;;3.50;1.57;;;;;;;;;;4976438;28;20445;-71
2022/11/09 06:13:32;;;;;;;3.57;1.37;;;;;;;;;;4988735;28;21141;-71
2022/11/09 06:16:10;;;;;;;3.13;1.13;;;;;;;;;;4995378;28;20455;-70
2022/11/09 06:18:40;;;;;;;3.17;1.50;;;;;;;;;;4995546;28;20558;-71
2022/11/09 06:21:07;;;;;;;2.83;1.13;;;;;;;;;;4995617;28;20879;-71
2022/11/09 06:23:38;;;;;;;3.60;1.20;;;;;;;;;;4985028;28;20469;-71
2022/11/09 06:26:06;;;;;;;3.00;1.30;;;;;;;;;;4975457;28;20453;-70
2022/11/09 06:28:34;;;;;;;3.97;1.53;;;;;;;;;;4975039;28;20492;-71
2022/11/09 06:31:02;;;;;;;2.70;1.00;;;;;;;;;;4991846;28;21042;-71
2022/11/09 06:33:31;;;;;;;3.63;1.37;;;;;;;;;;4994392;28;20534;-71
2022/11/09 06:36:00;;;;;;;2.03;1.00;;;;;;;;;;4994000;28;20456;-71
2022/11/09 06:38:28;;;;;;;2.17;1.17;;;;;;;;;;4982181;28;20808;-71
2022/11/09 06:40:56;;;;;;;2.17;1.07;;;;;;;;;;4974506;28;20460;-71
2022/11/09 06:43:24;;;;;;;2.50;1.17;;;;;;;;;;4981462;28;20709;-70
2022/11/09 06:45:55;;;;;;;2.07;1.27;;;;;;;;;;4987861;28;20495;-71
2022/11/09 06:48:23;;;;;;;2.73;1.37;;;;;;;;;;4983246;28;20461;-70
2022/11/09 06:50:51;;;;;;;5.37;1.13;;;;;;;;;;4991964;28;20479;-71
2022/11/09 06:53:26;;;;;;;2.10;1.00;;;;;;;;;;4993999;28;20586;-70
2022/11/09 06:55:58;;;;;;;3.77;1.40;;;;;;;;;;4994172;28;20468;-71
2022/11/09 06:58:26;;;;;;;2.23;0.80;;;;;;;;;;4984442;28;20468;-71
2022/11/09 07:00:56;;;;;;;2.53;1.23;;;;;;;;;;4988213;28;20903;-71
2022/11/09 07:03:24;;;;;;;2.10;1.13;;;;;;;;;;4994851;28;20463;-70
2022/11/09 07:05:53;;;;;;;7.53;2.23;;;;;;;;;;4989033;28;20471;-72
2022/11/09 07:08:24;;;;;;;5.00;1.10;;;;;;;;;;4978796;28;20465;-70
2022/11/09 07:10:52;;;;;;;2.47;1.40;;;;;;;;;;4991860;28;20444;-69
2022/11/09 07:13:20;;;;;;;5.50;2.23;;;;;;;;;;4984762;28;20883;-70
2022/11/09 07:15:53;;;;;;;5.70;1.60;;;;;;;;;;4978735;28;20453;-70
2022/11/09 07:18:21;;;;;;;4.13;1.63;;;;;;;;;;4981964;28;20492;-69
2022/11/09 07:20:48;;;;;;;2.60;1.77;;;;;;;;;;4979695;28;20487;-71
2022/11/09 07:23:19;;;;;;;3.07;1.27;;;;;;;;;;4983351;28;20534;-71
2022/11/09 07:25:48;;;;;;;2.97;1.30;;;;;;;;;;4985343;28;20908;-70
2022/11/09 07:28:16;;;;;;;3.70;1.53;;;;;;;;;;4994472;28;20455;-70
2022/11/09 07:30:49;;;;;;;4.33;3.93;;;;;;;;;;4976970;28;20507;-70
2022/11/09 07:33:21;;;;;;;3.97;1.30;;;;;;;;;;4987020;28;20849;-71
2022/11/09 07:35:53;;;;;;;2.33;1.10;;;;;;;;;;4988940;28;20473;-70
2022/11/09 07:38:21;;;;;;;2.37;1.00;;;;;;;;;;4979301;28;20531;-70
2022/11/09 07:40:52;;;;;;;32.53;2.50;;;;;;;;;;4981018;28;20559;-70
2022/11/09 07:43:20;;;;;;;2.73;1.33;;;;;;;;;;4978202;28;20441;-70
2022/11/09 07:45:48;;;;;;;3.67;1.50;;;;;;;;;;4988203;28;20460;-71
2022/11/09 07:48:16;;;;;;;4.47;1.20;;;;;;;;;;4982816;28;20970;-69
2022/11/09 07:50:43;;;;;;;2.57;1.40;;;;;;;;;;4978184;28;20513;-69
2022/11/09 07:53:12;;;;;;;3.13;1.73;;;;;;;;;;4982851;28;20888;-70
2022/11/09 07:55:40;;;;;;;4.33;1.40;;;;;;;;;;4982546;28;20473;-73
2022/11/09 07:58:13;;;;;;;2.53;1.00;;;;;;;;;;4981475;28;21058;-69
2022/11/09 08:00:42;;;;;;;2.57;1.30;;;;;;;;;;4986114;28;20456;-71
2022/11/09 08:03:10;;;;;;;3.53;1.03;;;;;;;;;;4985620;28;20464;-71
2022/11/09 08:05:38;;;;;;;2.40;1.10;;;;;;;;;;4985606;28;20468;-70
2022/11/09 08:08:07;;;;;;;2.00;1.00;;;;;;;;;;4978008;28;20492;-71
2022/11/09 08:13:19;;;;;;;6.13;1.63;;;;;;;;;;4981100;28;20436;-70
2022/11/09 08:15:48;;;;;;;2.73;1.00;;;;;;;;;;4984737;28;20544;-71
2022/11/09 08:18:17;;;;;;;2.43;1.03;;;;;;;;;;4979610;28;20469;-71
2022/11/09 08:20:45;;;;;;;5.33;1.33;;;;;;;;;;4980614;28;20559;-70
2022/11/09 08:23:13;;;;;;;3.47;1.57;;;;;;;;;;4994141;28;20452;-71
2022/11/09 08:25:41;;;;;;;3.00;1.07;;;;;;;;;;4982685;28;20481;-70
2022/11/09 08:28:10;;;;;;;4.03;1.57;;;;;;;;;;4978805;28;20465;-70
2022/11/09 08:30:39;;;;;;;3.80;1.00;;;;;;;;;;4989753;28;20480;-71
2022/11/09 08:33:07;;;;;;;3.50;1.30;;;;;;;;;;4981877;28;21007;-70
2022/11/09 08:35:35;;;;;;;4.20;1.30;;;;;;;;;;4977053;28;20476;-70
2022/11/09 08:38:04;;;;;;;3.77;1.23;;;;;;;;;;4992786;28;20465;-70
2022/11/09 08:40:32;;;;;;;4.63;1.33;;;;;;;;;;4996319;28;20561;-69
2022/11/09 08:43:02;;;;;;;4.10;1.40;;;;;;;;;;4983566;28;20531;-70
2022/11/09 08:45:29;;;;;;;3.07;1.13;;;;;;;;;;4986071;28;20463;-71
2022/11/09 08:48:04;;;;;;;3.57;1.93;;;;;;;;;;4981573;28;20500;-72
2022/11/09 08:50:51;;;;;;;4.13;1.40;;;;;;;;;;4979846;28;20464;-70
2022/11/09 08:53:25;;;;;;;5.70;2.67;;;;;;;;;;4987096;28;20591;-69
2022/11/09 08:55:53;;;;;;;5.20;2.03;;;;;;;;;;4978630;28;20480;-70
2022/11/09 08:58:21;;;;;;;2.13;1.13;;;;;;;;;;4988318;28;20472;-70
2022/11/09 09:00:49;;;;;;;3.23;1.33;;;;;;;;;;4981820;28;20461;-70
2022/11/09 09:06:04;;;;;;;3.77;1.40;;;;;;;;;;4978127;28;20750;-70
2022/11/09 09:08:32;;;;;;;4.03;1.60;;;;;;;;;;4983164;28;20469;-70
2022/11/09 09:11:02;;;;;;;4.97;1.40;;;;;;;;;;4978500;28;20453;-71
2022/11/09 09:13:30;;;;;;;4.43;2.70;;;;;;;;;;4980095;28;20505;-70
2022/11/09 09:16:11;;;;;;;3.67;1.90;;;;;;;;;;4975481;28;20524;-70
2022/11/09 09:18:40;;;;;;;3.70;2.33;;;;;;;;;;4984287;28;20550;-70
2022/11/09 09:21:08;;;;;;;3.43;1.70;;;;;;;;;;4982930;28;20465;-69
2022/11/09 09:23:36;;;;;;;4.13;1.60;;;;;;;;;;4979774;28;21127;-71
2022/11/09 09:26:04;;;;;;;2.33;1.30;;;;;;;;;;4985530;28;20542;-70
2022/11/09 09:28:45;;;;;;;3.30;1.57;;;;;;;;;;4978057;28;20460;-70
2022/11/09 09:31:16;;;;;;;1.93;1.00;;;;;;;;;;4977039;28;20464;-71
2022/11/09 09:33:47;;;;;;;2.87;1.17;;;;;;;;;;4978778;28;20511;-70
2022/11/09 09:36:18;;;;;;;3.90;1.40;;;;;;;;;;4976470;28;20488;-70
2022/11/09 09:38:48;;;;;;;5.87;1.50;;;;;;;;;;4990067;28;21024;-71
2022/11/09 09:41:36;;;;;;;1.87;0.90;;;;;;;;;;4981017;28;20503;-72
2022/11/09 09:44:31;;;;;;;2.70;1.33;;;;;;;;;;4982785;28;20874;-70
2022/11/09 09:47:16;;;;;;;2.10;1.10;;;;;;;;;;4987518;28;20761;-70
2022/11/09 09:50:10;;;;;;;3.73;1.50;;;;;;;;;;4976263;28;20777;-71
2022/11/09 09:52:40;;;;;;;2.97;1.03;;;;;;;;;;4982047;28;20464;-70
2022/11/09 09:55:14;;;;;;;4.00;1.13;;;;;;;;;;4977151;28;20564;-70
2022/11/09 09:57:53;;;;;;;2.70;1.00;;;;;;;;;;4980016;28;20911;-71
2022/11/09 10:00:27;;;;;;;4.90;1.10;;;;;;;;;;4977681;28;20471;-71
2022/11/09 10:03:04;;;;;;;2.63;1.27;;;;;;;;;;4978060;28;20579;-71
2022/11/09 10:05:48;;;;;;;3.10;1.20;;;;;;;;;;4979705;28;20535;-69
2022/11/09 10:08:26;;;;;;;3.20;1.20;;;;;;;;;;4993472;28;20506;-69
2022/11/09 10:11:13;;;;;;;3.13;1.10;;;;;;;;;;4994186;28;20852;-70
2022/11/09 10:14:01;;;;;;;4.30;1.40;;;;;;;;;;4994377;28;20468;-71
2022/11/09 10:16:35;;;;;;;4.33;1.80;;;;;;;;;;4989275;28;20738;-71
2022/11/09 10:19:27;;;;;;;3.27;1.00;;;;;;;;;;4991219;28;20479;-71
2022/11/09 10:22:00;;;;;;;2.23;1.30;;;;;;;;;;4983826;28;20503;-70
2022/11/09 10:24:32;;;;;;;2.90;1.37;;;;;;;;;;4994436;28;20456;-70
2022/11/09 10:27:12;;;;;;;4.93;1.60;;;;;;;;;;4977665;28;20469;-70
2022/11/09 10:29:44;;;;;;;2.97;1.40;;;;;;;;;;4974480;28;20688;-70
2022/11/09 10:32:15;;;;;;;3.47;1.23;;;;;;;;;;4974235;28;20467;-71
2022/11/09 10:34:46;;;;;;;2.23;1.17;;;;;;;;;;4987925;28;20488;-71
2022/11/09 10:37:22;;;;;;;3.73;1.20;;;;;;;;;;4983766;28;20483;-68
2022/11/09 10:39:58;;;;;;;2.50;1.50;;;;;;;;;;4976840;28;20488;-70
2022/11/09 10:42:29;;;;;;;2.03;0.90;;;;;;;;;;4986779;28;21059;-70
2022/11/09 10:45:10;;;;;;;3.37;2.17;;;;;;;;;;4992476;28;20837;-71
2022/11/09 10:47:49;;;;;;;2.00;0.80;;;;;;;;;;4989604;28;20618;-70
2022/11/09 10:50:33;;;;;;;3.83;1.30;;;;;;;;;;4984947;28;21037;-70
2022/11/09 10:53:20;;;;;;;4.87;2.00;;;;;;;;;;4989193;28;20479;-71
2022/11/09 10:55:53;;;;;;;2.83;1.10;;;;;;;;;;4974750;28;20828;-69
2022/11/09 10:58:39;;;;;;;5.57;2.60;;;;;;;;;;4976002;28;20464;-70
2022/11/09 11:01:14;;;;;;;5.67;1.57;;;;;;;;;;4986934;28;20495;-71
2022/11/09 11:03:44;;;;;;;3.67;1.20;;;;;;;;;;4977785;28;20476;-69
2022/11/09 11:06:16;;;;;;;1.70;1.03;;;;;;;;;;4986869;28;20478;-68
2022/11/09 11:08:46;;;;;;;5.40;1.30;;;;;;;;;;4978562;28;20453;-69
2022/11/09 11:11:18;;;;;;;5.40;2.40;;;;;;;;;;4978666;28;20465;-70
2022/11/09 11:13:47;;;;;;;2.93;1.53;;;;;;;;;;4978523;28;20456;-70
2022/11/09 11:16:22;;;;;;;3.97;1.30;;;;;;;;;;4986740;28;20554;-69
2022/11/09 11:18:50;;;;;;;5.40;1.40;;;;;;;;;;4997734;28;21125;-70
2022/11/09 11:21:27;;;;;;;2.53;1.10;;;;;;;;;;4984086;28;20544;-70
2022/11/09 11:24:15;;;;;;;4.50;1.47;;;;;;;;;;4992882;28;20470;-70
2022/11/09 11:26:48;;;;;;;4.73;1.83;;;;;;;;;;4991390;28;20516;-70
2022/11/09 11:29:34;;;;;;;6.03;1.77;;;;;;;;;;4982168;28;20535;-71
2022/11/09 11:32:01;;;;;;;1.63;0.87;;;;;;;;;;4992185;28;20464;-71
2022/11/09 11:34:31;;;;;;;5.70;2.87;;;;;;;;;;4988798;28;20475;-69
2022/11/09 11:37:14;;;;;;;3.90;1.40;;;;;;;;;;4985423;28;20464;-69
2022/11/09 11:39:52;;;;;;;6.57;1.80;;;;;;;;;;4986577;28;20483;-71
2022/11/09 11:42:27;;;;;;;6.90;1.43;;;;;;;;;;4980095;28;20475;-70
2022/11/09 11:45:11;;;;;;;4.23;1.50;;;;;;;;;;4991653;28;20768;-70
2022/11/09 11:47:47;;;;;;;4.00;2.20;;;;;;;;;;4983868;28;20464;-71
2022/11/09 11:50:29;;;;;;;6.00;2.07;;;;;;;;;;4966972;28;20492;-71
2022/11/09 11:56:01;;;;;;;5.00;1.53;;;;;;;;;;4983126;28;20476;-68
2022/11/09 11:58:37;;;;;;;8.27;2.90;;;;;;;;;;4986742;28;20980;-69
2022/11/09 12:01:10;;;;;;;4.37;1.47;;;;;;;;;;4978388;28;20519;-70
2022/11/09 12:04:02;;;;;;;4.03;1.60;;;;;;;;;;4977470;28;20559;-70
2022/11/09 12:07:06;;;;;;;7.00;1.23;;;;;;;;;;4986679;28;20457;-71
2022/11/09 12:09:46;;;;;;;5.60;1.50;;;;;;;;;;4966669;28;20471;-70
2022/11/09 12:12:20;;;;;;;4.40;1.07;;;;;;;;;;4983328;28;20465;-70
2022/11/09 12:14:52;;;;;;;6.30;1.47;;;;;;;;;;4980321;28;20484;-70
2022/11/09 12:17:26;;;;;;;4.10;1.20;;;;;;;;;;4977321;28;20485;-69
2022/11/09 12:20:01;;;;;;;5.20;1.97;;;;;;;;;;4987234;28;20444;-70
2022/11/09 12:22:37;;;;;;;9.10;1.97;;;;;;;;;;4988736;28;20455;-71
2022/11/09 12:25:15;;;;;;;5.00;1.73;;;;;;;;;;4979411;28;20500;-71
2022/11/09 12:27:56;;;;;;;2.83;0.93;;;;;;;;;;4990213;28;20471;-69
2022/11/09 12:30:29;;;;;;;4.83;1.40;;;;;;;;;;4976086;28;20900;-72
2022/11/09 12:33:05;;;;;;;4.60;1.30;;;;;;;;;;4984925;28;20495;-70
2022/11/09 12:39:14;;;;;;;4.10;1.47;;;;;;;;;;4993718;28;20907;-71
2022/11/09 12:41:52;;;;;;;3.90;1.43;;;;;;;;;;4980578;28;21067;-71
2022/11/09 12:44:30;;;;;;;10.60;2.63;;;;;;;;;;4983416;28;20448;-70
2022/11/09 12:47:03;;;;;;;2.33;1.20;;;;;;;;;;4983667;28;20559;-71
2022/11/09 12:53:08;;;;;;;5.70;1.50;;;;;;;;;;4983915;28;20566;-71
2022/11/09 12:55:54;;;;;;;3.70;1.40;;;;;;;;;;4983603;28;20485;-70
2022/11/09 12:58:25;;;;;;;3.50;1.30;;;;;;;;;;4986747;28;20921;-70
2022/11/09 13:01:00;;;;;;;2.83;0.90;;;;;;;;;;4996110;28;20620;-70
2022/11/09 13:06:25;;;;;;;3.50;1.23;;;;;;;;;;4979578;28;20536;-70
2022/11/09 13:09:04;;;;;;;8.97;1.97;;;;;;;;;;4969894;28;20476;-70
2022/11/09 13:14:47;;;;;;;4.10;1.57;;;;;;;;;;4977089;28;20449;-70
2022/11/09 13:18:00;;;;;;;4.43;1.37;;;;;;;;;;4982185;28;20463;-70
2022/11/09 13:20:59;;;;;;;4.47;1.50;;;;;;;;;;4979715;28;20563;-71
2022/11/09 13:23:30;;;;;;;5.40;1.47;;;;;;;;;;4978566;28;20493;-70
2022/11/09 13:26:16;;;;;;;8.73;1.40;;;;;;;;;;4978038;28;20918;-71
2022/11/09 13:29:12;;;;;;;3.80;0.90;;;;;;;;;;4982578;28;20523;-71
2022/11/09 13:32:00;;;;;;;4.30;1.43;;;;;;;;;;4979600;28;20477;-70
2022/11/09 13:34:44;;;;;;;3.97;1.53;;;;;;;;;;4983081;28;20574;-70
2022/11/09 13:37:37;;;;;;;6.83;1.53;;;;;;;;;;4978128;28;20476;-72
2022/11/09 13:40:23;;;;;;;6.77;1.40;;;;;;;;;;4988371;28;21019;-71
2022/11/09 13:42:58;;;;;;;7.83;1.30;;;;;;;;;;4985468;28;20520;-72
2022/11/09 13:45:45;;;;;;;4.03;2.00;;;;;;;;;;4980301;28;20532;-71
2022/11/09 13:48:35;;;;;;;5.77;1.60;;;;;;;;;;4983956;28;20555;-72
2022/11/09 13:51:05;;;;;;;10.30;2.40;;;;;;;;;;4972310;28;20785;-70
2022/11/09 13:53:49;;;;;;;3.20;1.50;;;;;;;;;;4980189;28;20588;-71
2022/11/09 13:56:22;;;;;;;2.27;1.20;;;;;;;;;;4974922;28;20489;-69
2022/11/09 13:58:52;;;;;;;5.70;1.30;;;;;;;;;;4983437;28;20469;-71
2022/11/09 14:01:26;;;;;;;4.40;1.80;;;;;;;;;;4979729;28;20449;-71
2022/11/09 14:04:10;;;;;;;2.77;1.00;;;;;;;;;;4981941;28;20551;-74
2022/11/09 14:06:38;;;;;;;2.83;1.60;;;;;;;;;;4977839;28;20461;-72
2022/11/09 14:09:10;;;;;;;3.37;1.10;;;;;;;;;;4978773;28;20473;-71
2022/11/09 14:11:57;;;;;;;5.60;1.60;;;;;;;;;;4976115;28;20538;-72
2022/11/09 14:14:47;;;;;;;2.97;1.90;;;;;;;;;;4975904;28;20479;-73
2022/11/09 14:17:36;;;;;;;4.33;1.70;;;;;;;;;;5147610;27;20619;-74
2022/11/09 14:20:17;;;;;;;3.90;1.87;;;;;;;;;;5131608;27;20456;-74
2022/11/09 14:22:45;;;;;;;4.33;2.10;;;;;;;;;;5126214;27;20583;-73
2022/11/09 14:25:18;;;;;;;3.70;1.90;;;;;;;;;;5121307;27;20458;-72
2022/11/09 14:28:06;;;;;;;11.20;1.80;;;;;;;;;;5133461;27;20452;-73
2022/11/09 14:30:48;;;;;;;4.17;1.70;;;;;;;;;;5116203;27;20520;-73
2022/11/09 14:33:28;;;;;;;5.60;2.00;;;;;;;;;;5131827;27;20448;-74
2022/11/09 14:35:58;;;;;;;5.23;1.30;;;;;;;;;;5123885;27;20508;-69
2022/11/09 14:38:28;;;;;;;3.50;1.53;;;;;;;;;;5127351;27;20450;-70
2022/11/09 14:41:04;;;;;;;5.30;1.57;;;;;;;;;;5128688;27;20480;-70
2022/11/09 14:43:39;;;;;;;4.40;1.57;;;;;;;;;;5122226;27;20565;-70
2022/11/09 14:46:20;;;;;;;8.33;2.47;;;;;;;;;;5130899;27;20537;-70
2022/11/09 14:48:56;;;;;;;6.07;2.30;;;;;;;;;;5122224;27;20458;-71
2022/11/09 14:51:38;;;;;;;2.83;1.47;;;;;;;;;;5122973;27;20469;-73
2022/11/09 14:54:07;;;;;;;3.97;1.30;;;;;;;;;;5128274;27;20438;-70
2022/11/09 14:56:36;;;;;;;3.70;1.53;;;;;;;;;;5110421;28;20478;-71
2022/11/09 14:59:06;;;;;;;4.17;1.60;;;;;;;;;;5123635;27;20461;-71
2022/11/09 15:01:33;;;;;;;3.97;1.37;;;;;;;;;;5112426;28;20459;-71
2022/11/09 15:07:04;;;;;;;2.80;1.33;;;;;;;;;;5130036;27;20480;-71
2022/11/09 15:09:39;;;;;;;4.80;2.10;;;;;;;;;;5126480;27;20455;-71
2022/11/09 15:12:14;;;;;;;4.07;1.70;;;;;;;;;;5125137;27;20894;-71
2022/11/09 15:14:43;;;;;;;2.97;1.83;;;;;;;;;;5125216;27;20457;-72
2022/11/09 15:17:18;;;;;;;3.90;2.00;;;;;;;;;;5119436;27;20481;-72
2022/11/09 15:19:58;;;;;;;3.90;1.60;;;;;;;;;;5115781;27;20593;-72
2022/11/09 15:22:46;;;;;;;4.47;2.20;;;;;;;;;;5122886;27;20460;-72
2022/11/09 15:25:25;;;;;;;3.47;1.93;;;;;;;;;;5121726;27;20462;-71
2022/11/09 15:28:01;;;;;;;5.20;1.97;;;;;;;;;;5114167;27;20450;-72
2022/11/09 15:30:34;;;;;;;4.13;1.60;;;;;;;;;;5104461;28;20734;-72
2022/11/09 15:33:02;;;;;;;6.87;1.73;;;;;;;;;;5097219;28;20978;-71
2022/11/09 15:35:34;;;;;;;4.73;1.60;;;;;;;;;;5101589;28;20455;-71
2022/11/09 15:38:05;;;;;;;3.50;1.93;;;;;;;;;;5105368;27;20924;-71
2022/11/09 15:40:32;;;;;;;8.20;3.10;;;;;;;;;;5112886;27;20447;-71